EDSB/FKB METAR and TAF weather

Enter ICAO airport designator
Station Type Date Time Source
EDSB METAR 2020/01/18 04:20 UTC NOAA

EDSB 180420Z 22005KT 9999 FEW031 SCT046 05/02 Q1026


Station Type Date Time Source
EDSB Decoded METAR 2020/01/18 04:20 UTC NOAA

Karlsruhe, Baden Wurttemberg, Germany (EDSB) 48-46-43N 008-04-47E
Jan 17, 2020 - 11:20 PM EST / 2020.01.18 0420 UTC
Wind: from the SW (220 degrees) at 6 MPH (5 KT):0
Visibility: greater than 7 mile(s):0
Sky conditions: partly cloudy
Temperature: 41 F (5 C)
Dew Point: 35 F (2 C)
Relative Humidity: 80%
Pressure (altimeter): 30.30 in. Hg (1026 hPa)
ob: EDSB 180420Z 22005KT 9999 FEW031 SCT046 05/02 Q1026
cycle: 4

Station Type Date Time Source
EDSB TAF 2020/01/17 23:18 UTC NOAA

TAF
AMD EDSB 172314Z 1723/1818 CNL

Example: see airport list